Terminal Aerodrome Forecast
Issued by NWS North Platte, NE

Home | Current Version | Previous Version | Text Only | Print | Product List | Glossary On
Versions: 1 2 3 4 5 6 7 8 9 10 11 12 13
000
FTUS43 KLBF 270520
TAFVTN
TAF
KVTN 270520Z 2706/2806 15008KT P6SM SCT200
     FM270800 15007KT P6SM FEW250 WS020/18040KT
     FM271100 17011KT P6SM FEW200 WS020/19040KT
     FM271300 17014G22KT P6SM SCT200
     FM271600 18023G31KT P6SM SCT200
     FM280000 18017KT P6SM OVC200 PROB30 2800/2803 P6SM -TSRA
      BKN050CB=

USA.gov is the U.S. government's official web portal to all federal, state and local government web resources and services.